createdAt,value
2022-11-05T00:02:11.045Z,2.78
2022-11-05T00:05:02.389Z,3.00
2022-11-05T00:08:04.200Z,2.80
2022-11-05T00:10:38.715Z,2.45
2022-11-05T00:13:29.888Z,2.03
2022-11-05T00:16:20.558Z,2.42
2022-11-05T00:19:06.731Z,2.42
2022-11-05T00:21:58.442Z,2.05
2022-11-05T00:24:56.454Z,3.08
2022-11-05T00:27:28.489Z,3.67
2022-11-05T00:30:00.601Z,3.40
2022-11-05T00:32:32.985Z,3.25
2022-11-05T00:35:09.412Z,2.78
2022-11-05T00:37:47.129Z,3.55
2022-11-05T00:40:21.831Z,2.80
2022-11-05T00:43:13.104Z,2.40
2022-11-05T00:45:45.332Z,2.78
2022-11-05T00:48:35.828Z,2.65
2022-11-05T00:51:08.168Z,2.35
2022-11-05T00:53:40.438Z,2.40
2022-11-05T00:56:12.494Z,2.45
2022-11-05T00:58:44.534Z,3.05
2022-11-05T01:01:16.652Z,2.20
2022-11-05T01:03:51.889Z,2.90
2022-11-05T01:06:24.471Z,2.60
2022-11-05T01:08:56.482Z,2.70
2022-11-05T01:11:34.438Z,2.08
2022-11-05T01:14:13.094Z,2.10
2022-11-05T01:16:45.623Z,2.08
2022-11-05T01:19:17.653Z,2.40
2022-11-05T01:21:49.818Z,2.33
2022-11-05T01:24:21.824Z,2.45
2022-11-05T01:26:53.823Z,2.75
2022-11-05T01:29:26.052Z,2.28
2022-11-05T01:31:58.200Z,2.30
2022-11-05T01:34:30.462Z,2.90
2022-11-05T01:37:02.515Z,2.38
2022-11-05T01:39:34.749Z,2.00
2022-11-05T01:42:20.242Z,2.45
2022-11-05T01:44:56.948Z,2.70
2022-11-05T01:47:31.979Z,3.20
2022-11-05T01:50:19.452Z,3.25
2022-11-05T01:52:58.147Z,3.40
2022-11-05T01:55:34.052Z,3.10
2022-11-05T01:58:09.485Z,3.85
2022-11-05T02:00:43.272Z,4.30
2022-11-05T02:03:16.922Z,3.10
2022-11-05T02:05:50.675Z,3.85
2022-11-05T02:11:05.888Z,3.13
2022-11-05T02:13:37.921Z,3.42
2022-11-05T02:16:14.638Z,3.15
2022-11-05T02:18:52.926Z,2.90
2022-11-05T02:22:13.302Z,3.17
2022-11-05T02:25:07.231Z,3.10
2022-11-05T02:27:57.776Z,3.47
2022-11-05T02:30:38.856Z,4.15
2022-11-05T02:33:32.422Z,4.00
2022-11-05T02:36:20.508Z,3.90
2022-11-05T02:39:07.049Z,3.47
2022-11-05T02:41:39.076Z,3.80
2022-11-05T02:44:37.177Z,3.65
2022-11-05T02:47:17.893Z,3.28
2022-11-05T02:50:37.394Z,3.20
2022-11-05T02:53:20.048Z,3.40
2022-11-05T02:56:00.571Z,4.47
2022-11-05T02:58:35.138Z,4.05
2022-11-05T03:01:09.387Z,4.80
2022-11-05T03:03:52.206Z,7.20
2022-11-05T03:06:46.401Z,9.15
2022-11-05T03:12:17.595Z,11.63
2022-11-05T03:15:16.925Z,9.45
2022-11-05T03:18:07.594Z,8.88
2022-11-05T03:20:51.365Z,6.40
2022-11-05T03:23:33.519Z,8.02
2022-11-05T03:26:17.835Z,9.05
2022-11-05T03:28:56.459Z,9.82
2022-11-05T03:31:30.971Z,11.98
2022-11-05T03:34:05.742Z,14.40
2022-11-05T03:36:45.006Z,13.57
2022-11-05T03:39:29.208Z,12.65
2022-11-05T03:42:05.050Z,14.45
2022-11-05T03:44:40.069Z,11.45
2022-11-05T03:47:17.048Z,8.32
2022-11-05T03:50:16.736Z,8.63
2022-11-05T03:52:53.834Z,7.47
2022-11-05T03:55:34.025Z,7.45
2022-11-05T03:58:07.169Z,6.57
2022-11-05T04:00:39.448Z,5.97
2022-11-05T04:03:11.696Z,5.63
2022-11-05T04:05:44.365Z,5.07
2022-11-05T04:08:34.839Z,5.28
2022-11-05T04:11:28.534Z,13.65
2022-11-05T04:14:00.574Z,7.50
2022-11-05T04:16:51.278Z,9.52
2022-11-05T04:19:42.251Z,10.50
2022-11-05T04:22:33.034Z,10.40
2022-11-05T04:25:05.390Z,12.77
2022-11-05T04:27:37.741Z,11.38
2022-11-05T04:30:19.316Z,11.48
2022-11-05T04:33:16.675Z,10.70
2022-11-05T04:35:49.374Z,9.35
2022-11-05T04:38:21.526Z,8.98
2022-11-05T04:40:53.659Z,8.15
2022-11-05T04:43:25.652Z,7.53
2022-11-05T04:45:57.677Z,6.85
2022-11-05T04:48:30.202Z,5.82
2022-11-05T04:51:02.594Z,6.03
2022-11-05T04:53:34.600Z,6.03
2022-11-05T04:56:11.040Z,6.68
2022-11-05T04:58:43.229Z,6.50
2022-11-05T05:01:21.606Z,5.55
2022-11-05T05:03:54.989Z,5.15
2022-11-05T05:06:27.209Z,5.43
2022-11-05T05:08:59.305Z,6.05
2022-11-05T05:11:31.305Z,6.03
2022-11-05T05:14:03.890Z,5.30
2022-11-05T05:16:35.860Z,5.03
2022-11-05T05:19:07.884Z,6.05
2022-11-05T05:21:40.482Z,5.28
2022-11-05T05:24:18.815Z,5.80
2022-11-05T05:26:51.622Z,4.55
2022-11-05T05:29:23.718Z,5.23
2022-11-05T05:31:55.761Z,5.00
2022-11-05T05:34:27.774Z,4.40
2022-11-05T05:36:59.891Z,6.20
2022-11-05T05:39:31.872Z,8.02
2022-11-05T05:42:04.261Z,8.13
2022-11-05T05:44:36.285Z,9.00
2022-11-05T05:47:08.346Z,9.35
2022-11-05T05:49:40.417Z,15.27
2022-11-05T05:52:12.668Z,9.65
2022-11-05T05:54:44.862Z,11.57
2022-11-05T05:57:16.947Z,7.60
2022-11-05T05:59:49.000Z,6.10
2022-11-05T06:02:21.243Z,3.95
2022-11-05T06:04:53.292Z,5.18
2022-11-05T06:07:25.354Z,5.90
2022-11-05T06:09:57.514Z,4.60
2022-11-05T06:12:30.277Z,4.50
2022-11-05T06:15:02.326Z,5.53
2022-11-05T06:17:34.514Z,5.05
2022-11-05T06:20:08.570Z,4.68
2022-11-05T06:22:40.923Z,5.07
2022-11-05T06:25:12.940Z,4.43
2022-11-05T06:27:44.970Z,6.22
2022-11-05T06:30:17.932Z,8.82
2022-11-05T06:32:50.082Z,7.27
2022-11-05T06:35:22.142Z,6.00
2022-11-05T06:37:58.558Z,5.22
2022-11-05T06:40:30.758Z,10.48
2022-11-05T06:43:03.000Z,6.45
2022-11-05T06:45:35.237Z,5.97
2022-11-05T06:48:07.380Z,6.47
2022-11-05T06:50:43.417Z,5.82
2022-11-05T06:53:16.091Z,4.68
2022-11-05T06:55:48.163Z,9.70
2022-11-05T06:58:20.291Z,8.82
2022-11-05T07:00:52.323Z,7.13
2022-11-05T07:03:24.544Z,8.60
2022-11-05T07:05:59.260Z,6.03
2022-11-05T07:08:33.368Z,7.53
2022-11-05T07:11:06.344Z,8.95
2022-11-05T07:13:38.387Z,9.25
2022-11-05T07:16:10.674Z,7.90
2022-11-05T07:18:42.726Z,8.25
2022-11-05T07:21:15.448Z,9.25
2022-11-05T07:23:48.002Z,11.90
2022-11-05T07:26:20.290Z,12.80
2022-11-05T07:28:52.294Z,8.73
2022-11-05T07:31:24.472Z,9.93
2022-11-05T07:33:56.509Z,11.07
2022-11-05T07:36:28.785Z,9.88
2022-11-05T07:39:00.840Z,10.57
2022-11-05T07:41:33.227Z,8.75
2022-11-05T07:44:05.541Z,12.85
2022-11-05T07:46:37.573Z,11.70
2022-11-05T07:49:09.759Z,13.52
2022-11-05T07:51:41.815Z,14.07
2022-11-05T07:54:14.039Z,16.15
2022-11-05T07:56:47.909Z,13.43
2022-11-05T07:59:20.109Z,13.57
2022-11-05T08:01:52.472Z,12.85
2022-11-05T08:04:24.651Z,12.57
2022-11-05T08:06:56.666Z,12.70
2022-11-05T08:09:28.721Z,9.55
2022-11-05T08:12:03.102Z,10.50
2022-11-05T08:14:35.960Z,15.18
2022-11-05T08:17:08.012Z,14.60
2022-11-05T08:19:40.066Z,12.90
2022-11-05T08:22:12.141Z,14.25
2022-11-05T08:24:44.206Z,11.98
2022-11-05T08:27:16.310Z,13.88
2022-11-05T08:29:48.946Z,14.50
2022-11-05T08:32:21.144Z,11.57
2022-11-05T08:34:53.222Z,13.20
2022-11-05T08:37:25.567Z,11.48
2022-11-05T08:39:57.642Z,12.95
2022-11-05T08:42:29.688Z,12.77
2022-11-05T08:45:01.749Z,10.48
2022-11-05T08:47:34.298Z,8.88
2022-11-05T08:50:06.863Z,9.52
2022-11-05T08:52:40.967Z,9.00
2022-11-05T08:55:13.105Z,10.82
2022-11-05T08:57:48.655Z,11.40
2022-11-05T09:00:20.968Z,12.18
2022-11-05T09:02:53.177Z,14.65
2022-11-05T09:05:25.341Z,10.25
2022-11-05T09:08:01.016Z,11.73
2022-11-05T09:10:34.097Z,11.98
2022-11-05T09:13:06.597Z,11.93
2022-11-05T09:15:39.061Z,7.28
2022-11-05T09:18:14.181Z,7.85
2022-11-05T09:20:46.923Z,7.45
2022-11-05T09:23:19.210Z,6.82
2022-11-05T09:25:51.370Z,8.85
2022-11-05T09:28:24.671Z,8.48
2022-11-05T09:30:56.738Z,7.43
2022-11-05T09:33:28.828Z,7.13
2022-11-05T09:36:00.985Z,8.23
2022-11-05T09:38:37.635Z,8.55
2022-11-05T09:41:35.977Z,8.20
2022-11-05T09:44:22.231Z,7.50
2022-11-05T09:46:59.544Z,6.82
2022-11-05T09:49:51.740Z,8.73
2022-11-05T09:52:25.603Z,7.85
2022-11-05T09:54:58.109Z,9.25
2022-11-05T09:57:36.430Z,8.75
2022-11-05T10:00:16.597Z,10.38
2022-11-05T10:02:55.847Z,7.57
2022-11-05T10:05:29.122Z,4.13
2022-11-05T10:08:29.456Z,3.35
2022-11-05T10:11:22.109Z,4.32
2022-11-05T10:13:59.628Z,4.07
2022-11-05T10:16:38.956Z,2.83
2022-11-05T10:19:25.436Z,3.65
2022-11-05T10:22:09.676Z,3.53
2022-11-05T10:24:47.868Z,3.30
2022-11-05T10:27:30.920Z,3.30
2022-11-05T10:30:03.578Z,2.73
2022-11-05T10:32:38.733Z,3.47
2022-11-05T10:35:18.658Z,3.40
2022-11-05T10:37:53.552Z,3.47
2022-11-05T10:40:44.613Z,3.03
2022-11-05T10:43:29.928Z,3.00
2022-11-05T10:46:23.037Z,3.28
2022-11-05T10:49:06.881Z,2.70
2022-11-05T10:51:40.135Z,2.92
2022-11-05T10:54:24.339Z,4.18
2022-11-05T10:56:56.403Z,3.28
2022-11-05T10:59:30.112Z,3.40
2022-11-05T11:04:53.820Z,3.05
2022-11-05T11:07:26.973Z,3.80
2022-11-05T11:09:59.524Z,4.30
2022-11-05T11:12:40.852Z,4.72
2022-11-05T11:15:27.484Z,4.68
2022-11-05T11:18:06.458Z,4.40
2022-11-05T11:20:44.761Z,5.10
2022-11-05T11:23:17.745Z,4.95
2022-11-05T11:25:58.393Z,6.07
2022-11-05T11:28:52.844Z,5.10
2022-11-05T11:31:30.660Z,5.70
2022-11-05T11:34:17.003Z,5.93
2022-11-05T11:36:54.032Z,6.75
2022-11-05T11:39:30.564Z,6.30
2022-11-05T11:42:09.876Z,9.32
2022-11-05T11:44:44.612Z,10.80
2022-11-05T11:47:21.307Z,7.40
2022-11-05T11:49:56.129Z,7.75
2022-11-05T11:52:33.422Z,6.43
2022-11-05T11:55:11.497Z,4.57
2022-11-05T11:57:47.769Z,5.38
2022-11-05T12:00:22.093Z,5.55
2022-11-05T12:03:12.520Z,4.72
2022-11-05T12:06:07.364Z,3.33
2022-11-05T12:09:12.145Z,4.00
2022-11-05T12:12:01.976Z,4.00
2022-11-05T12:14:53.084Z,4.25
2022-11-05T12:17:37.077Z,4.78
2022-11-05T12:23:09.667Z,3.47
2022-11-05T12:25:47.793Z,3.92
2022-11-05T12:28:22.906Z,3.40
2022-11-05T12:31:13.968Z,3.40
2022-11-05T12:34:20.921Z,3.90
2022-11-05T12:37:08.307Z,4.50
2022-11-05T12:40:01.470Z,4.82
2022-11-05T12:43:14.851Z,5.53
2022-11-05T12:46:19.608Z,9.02
2022-11-05T12:51:52.608Z,4.97
2022-11-05T12:54:33.429Z,14.13
2022-11-05T12:57:10.337Z,7.82
2022-11-05T13:00:07.703Z,9.43
2022-11-05T13:03:12.962Z,6.90
2022-11-05T13:06:17.740Z,4.70
2022-11-05T13:11:40.790Z,5.32
2022-11-05T13:14:44.893Z,3.40
2022-11-05T13:17:21.168Z,4.53
2022-11-05T13:20:18.034Z,4.88
2022-11-05T13:22:56.575Z,4.80
2022-11-05T13:25:31.565Z,4.75
2022-11-05T13:28:16.970Z,4.85
2022-11-05T13:30:56.228Z,5.85
2022-11-05T13:33:31.436Z,5.15
2022-11-05T13:36:34.318Z,4.45
2022-11-05T13:39:27.413Z,4.13
2022-11-05T13:42:05.724Z,3.72
2022-11-05T13:45:15.115Z,3.92
2022-11-05T13:48:02.001Z,3.22
2022-11-05T13:51:04.333Z,4.57
2022-11-05T13:54:08.308Z,3.80
2022-11-05T13:56:46.724Z,2.92
2022-11-05T13:59:45.573Z,3.85
2022-11-05T14:02:35.988Z,3.50
2022-11-05T14:05:25.222Z,3.50
2022-11-05T14:08:00.366Z,2.92
2022-11-05T14:11:00.957Z,3.67
2022-11-05T14:13:35.517Z,2.70
2022-11-05T14:16:10.474Z,2.15
2022-11-05T14:18:53.639Z,1.90
2022-11-05T14:21:25.881Z,2.65
2022-11-05T14:24:26.654Z,2.15
2022-11-05T14:27:01.431Z,3.20
2022-11-05T14:29:39.789Z,3.30
2022-11-05T14:32:18.143Z,3.80
2022-11-05T14:35:24.476Z,2.47
2022-11-05T14:37:58.383Z,3.72
2022-11-05T14:40:36.473Z,2.95
2022-11-05T14:43:14.943Z,3.70
2022-11-05T14:45:58.547Z,3.38
2022-11-05T14:48:35.712Z,3.72
2022-11-05T14:51:30.223Z,3.90
2022-11-05T14:54:25.757Z,5.13
2022-11-05T14:57:02.645Z,4.75
2022-11-05T14:59:53.136Z,8.73
2022-11-05T15:02:31.809Z,4.50
2022-11-05T15:05:38.353Z,4.90
2022-11-05T15:08:57.521Z,6.45
2022-11-05T15:11:35.774Z,4.93
2022-11-05T15:14:21.075Z,5.22
2022-11-05T15:16:56.483Z,5.90
2022-11-05T15:19:37.248Z,8.07
2022-11-05T15:22:35.669Z,6.55
2022-11-05T15:25:18.303Z,6.18
2022-11-05T15:28:14.554Z,6.88
2022-11-05T15:31:05.204Z,5.90
2022-11-05T15:33:37.500Z,6.28
2022-11-05T15:36:30.682Z,8.75
2022-11-05T15:39:29.541Z,9.95
2022-11-05T15:42:05.904Z,9.77
2022-11-05T15:44:46.386Z,6.05
2022-11-05T15:47:27.303Z,5.63
2022-11-05T15:50:02.678Z,6.57
2022-11-05T15:52:44.172Z,6.25
2022-11-05T15:55:24.203Z,6.15
2022-11-05T15:58:05.064Z,5.25
2022-11-05T16:00:37.517Z,5.00
2022-11-05T16:03:22.960Z,5.38
2022-11-05T16:05:55.548Z,5.05
2022-11-05T16:08:30.475Z,5.28
2022-11-05T16:11:02.563Z,7.18
2022-11-05T16:13:41.970Z,5.90
2022-11-05T16:16:14.317Z,5.05
2022-11-05T16:18:46.472Z,5.30
2022-11-05T16:21:22.855Z,5.97
2022-11-05T16:23:56.591Z,6.72
2022-11-05T16:26:55.874Z,7.10
2022-11-05T16:29:30.263Z,10.35
2022-11-05T16:32:13.820Z,11.10
2022-11-05T16:34:51.513Z,13.35
2022-11-05T16:37:26.223Z,14.13
2022-11-05T16:39:58.501Z,11.55
2022-11-05T16:42:33.751Z,10.35
2022-11-05T16:45:07.221Z,18.60
2022-11-05T16:47:39.395Z,12.90
2022-11-05T16:50:26.316Z,11.30
2022-11-05T16:52:58.836Z,12.05
2022-11-05T16:55:37.565Z,14.00
2022-11-05T16:58:19.793Z,10.60
2022-11-05T17:00:56.012Z,11.27
2022-11-05T17:03:28.452Z,10.85
2022-11-05T17:06:00.631Z,10.88
2022-11-05T17:08:32.841Z,9.32
2022-11-05T17:11:05.247Z,9.82
2022-11-05T17:13:37.492Z,11.82
2022-11-05T17:16:15.475Z,11.10
2022-11-05T17:18:47.851Z,10.60
2022-11-05T17:21:20.361Z,9.55
2022-11-05T17:23:52.564Z,9.95
2022-11-05T17:26:25.085Z,10.20
2022-11-05T17:28:57.182Z,20.17
2022-11-05T17:31:29.569Z,15.32
2022-11-05T17:34:01.896Z,14.20
2022-11-05T17:36:33.953Z,11.40
2022-11-05T17:39:11.044Z,10.88
2022-11-05T17:44:15.789Z,13.73
2022-11-05T17:46:47.814Z,12.55
2022-11-05T17:49:19.901Z,10.52
2022-11-05T17:51:52.046Z,11.02
2022-11-05T17:54:24.431Z,10.98
2022-11-05T17:56:56.569Z,11.02
2022-11-05T17:59:28.623Z,11.52
2022-11-05T18:02:00.910Z,11.57
2022-11-05T18:04:33.544Z,12.13
2022-11-05T18:07:06.325Z,12.32
2022-11-05T18:09:38.514Z,12.27
2022-11-05T18:12:10.589Z,10.60
2022-11-05T18:14:42.630Z,12.18
2022-11-05T18:17:14.857Z,12.23
2022-11-05T18:19:46.982Z,12.98
2022-11-05T18:22:19.690Z,12.85
2022-11-05T18:24:51.792Z,13.25
2022-11-05T18:27:27.561Z,13.85
2022-11-05T18:30:00.041Z,12.43
2022-11-05T18:32:32.538Z,16.23
2022-11-05T18:35:05.390Z,13.80
2022-11-05T18:37:38.897Z,13.87
2022-11-05T18:40:11.316Z,13.88
2022-11-05T18:42:43.371Z,15.25
2022-11-05T18:45:15.733Z,13.63
2022-11-05T18:47:47.907Z,13.23
2022-11-05T18:50:20.348Z,14.43
2022-11-05T18:52:52.661Z,13.52
2022-11-05T18:55:25.461Z,12.32
2022-11-05T18:57:57.694Z,13.07
2022-11-05T19:00:30.040Z,12.43
2022-11-05T19:03:02.263Z,12.80
2022-11-05T19:05:34.835Z,12.98
2022-11-05T19:08:07.031Z,15.18
2022-11-05T19:10:40.958Z,14.63
2022-11-05T19:13:14.119Z,16.35
2022-11-05T19:15:46.309Z,14.70
2022-11-05T19:18:18.340Z,14.35
2022-11-05T19:20:50.566Z,14.30
2022-11-05T19:23:23.021Z,15.50
2022-11-05T19:25:55.347Z,16.23
2022-11-05T19:28:28.504Z,18.23
2022-11-05T19:31:01.172Z,22.80
2022-11-05T19:33:33.288Z,17.48
2022-11-05T19:36:06.926Z,15.57
2022-11-05T19:38:40.436Z,16.35
2022-11-05T19:41:14.340Z,15.98
2022-11-05T19:43:46.847Z,15.25
2022-11-05T19:46:20.422Z,18.17
2022-11-05T19:48:53.192Z,19.27
2022-11-05T19:51:28.786Z,18.42
2022-11-05T19:54:02.516Z,15.57
2022-11-05T19:56:36.122Z,19.35
2022-11-05T19:59:08.303Z,16.10
2022-11-05T20:01:40.807Z,16.42
2022-11-05T20:04:13.050Z,16.33
2022-11-05T20:06:45.573Z,16.27
2022-11-05T20:09:22.700Z,14.63
2022-11-05T20:11:56.681Z,15.30
2022-11-05T20:14:29.776Z,15.60
2022-11-05T20:17:02.037Z,12.30
2022-11-05T20:19:35.231Z,12.70
2022-11-05T20:22:07.494Z,13.77
2022-11-05T20:24:39.765Z,13.52
2022-11-05T20:27:11.988Z,14.05
2022-11-05T20:29:47.762Z,14.40
2022-11-05T20:32:19.807Z,14.63
2022-11-05T20:34:51.860Z,14.65
2022-11-05T20:37:23.893Z,15.25
2022-11-05T20:39:56.144Z,15.10
2022-11-05T20:42:28.317Z,14.32
2022-11-05T20:45:00.782Z,13.85
2022-11-05T20:47:33.397Z,14.50
2022-11-05T20:50:06.129Z,14.82
2022-11-05T20:52:38.404Z,14.50
2022-11-05T20:55:10.704Z,16.10
2022-11-05T20:57:42.874Z,14.13
2022-11-05T21:00:15.937Z,15.00
2022-11-05T21:02:48.320Z,14.67
2022-11-05T21:05:20.538Z,15.15
2022-11-05T21:07:52.890Z,15.27
2022-11-05T21:10:25.691Z,15.90
2022-11-05T21:12:57.678Z,15.40
2022-11-05T21:15:29.727Z,15.85
2022-11-05T21:18:01.861Z,14.68
2022-11-05T21:20:33.921Z,16.08
2022-11-05T21:23:05.959Z,15.80
2022-11-05T21:25:40.085Z,16.67
2022-11-05T21:28:14.063Z,17.30
2022-11-05T21:30:47.625Z,19.17
2022-11-05T21:33:19.781Z,18.05
2022-11-05T21:35:52.020Z,18.08
2022-11-05T21:38:24.300Z,17.30
2022-11-05T21:40:59.921Z,18.67
2022-11-05T21:43:32.214Z,17.00
2022-11-05T21:46:04.964Z,17.55
2022-11-05T21:48:37.019Z,18.15
2022-11-05T21:51:30.189Z,17.92
2022-11-05T21:54:20.818Z,19.52
2022-11-05T21:57:11.508Z,18.00
2022-11-05T21:59:49.404Z,16.77
2022-11-05T22:02:23.755Z,19.80
2022-11-05T22:04:57.652Z,20.17
2022-11-05T22:07:36.303Z,22.05
2022-11-05T22:10:15.931Z,23.65
2022-11-05T22:12:48.749Z,21.50
2022-11-05T22:15:20.763Z,21.25
2022-11-05T22:17:52.792Z,18.55
2022-11-05T22:20:24.840Z,21.23
2022-11-05T22:22:56.834Z,19.17
2022-11-05T22:25:28.805Z,24.90
2022-11-05T22:28:00.900Z,21.48
2022-11-05T22:30:34.683Z,22.88
2022-11-05T22:33:06.937Z,20.85
2022-11-05T22:35:39.506Z,24.10
2022-11-05T22:38:12.918Z,21.70
2022-11-05T22:43:17.192Z,19.80
2022-11-05T22:45:49.448Z,22.58
2022-11-05T22:48:21.564Z,20.25
2022-11-05T22:50:53.600Z,21.35
2022-11-05T22:53:25.868Z,18.48
2022-11-05T22:55:58.267Z,18.70
2022-11-05T22:58:30.498Z,17.52
2022-11-05T23:01:03.777Z,25.70
2022-11-05T23:03:35.932Z,20.52
2022-11-05T23:06:35.411Z,20.50
2022-11-05T23:09:34.740Z,18.67
2022-11-05T23:12:19.088Z,20.83
2022-11-05T23:14:52.628Z,21.27
2022-11-05T23:17:43.398Z,24.77
2022-11-05T23:20:37.119Z,22.98
2022-11-05T23:23:31.946Z,22.80
2022-11-05T23:26:24.005Z,25.30
2022-11-05T23:28:56.183Z,22.35
2022-11-05T23:31:46.730Z,17.75
2022-11-05T23:34:18.918Z,20.17
2022-11-05T23:37:09.679Z,20.85
2022-11-05T23:39:42.959Z,22.58
2022-11-05T23:42:33.690Z,24.25
2022-11-05T23:45:25.372Z,18.65
2022-11-05T23:48:16.512Z,19.50
2022-11-05T23:50:53.348Z,17.77
2022-11-05T23:53:26.572Z,20.55
2022-11-05T23:56:15.133Z,16.92
2022-11-05T23:58:47.180Z,14.85
